Terminal Aerodrome Forecast
Issued by NWS Cleveland, OH

Home | Current Version | Previous Version | Text Only | Print | Product List | Glossary On
Versions: 1 2 3 4 5 6 7 8 9 10 11 12 13 14 15 16 17 18 19 20 21 22 23 24 25 26 27
000
FTUS41 KCLE 302335
TAFMFD
TAF
KMFD 302335Z 0100/0124 06008KT 3SM RA BR OVC008
      TEMPO 0100/0104 2SM RA BR OVC004
     FM010400 18006KT 3SM -RA BR OVC004
     FM011300 21006KT 6SM BR OVC008
     FM012200 04008KT P6SM OVC015=

USA.gov is the U.S. government's official web portal to all federal, state and local government web resources and services.